sensor_id;sensor_type;location;lat;lon;timestamp;pressure;altitude;pressure_sealevel;temperature;humidity
31761;BME280;18335;51.486;7.562;2023-03-26T00:01:17;99327.88;;;8.37;100.00
31761;BME280;18335;51.486;7.562;2023-03-26T00:03:46;99329.94;;;8.35;100.00
31761;BME280;18335;51.486;7.562;2023-03-26T00:06:20;99331.75;;;8.43;100.00
31761;BME280;18335;51.486;7.562;2023-03-26T00:08:47;99333.50;;;8.36;100.00
31761;BME280;18335;51.486;7.562;2023-03-26T00:11:15;99336.03;;;8.37;100.00
31761;BME280;18335;51.486;7.562;2023-03-26T00:13:43;99335.16;;;8.37;100.00
31761;BME280;18335;51.486;7.562;2023-03-26T00:16:11;99338.75;;;8.37;100.00
31761;BME280;18335;51.486;7.562;2023-03-26T00:18:40;99335.00;;;8.38;100.00
31761;BME280;18335;51.486;7.562;2023-03-26T00:21:11;99337.72;;;8.38;100.00
31761;BME280;18335;51.486;7.562;2023-03-26T00:23:38;99337.69;;;8.46;100.00
31761;BME280;18335;51.486;7.562;2023-03-26T00:26:06;99338.56;;;8.47;100.00
31761;BME280;18335;51.486;7.562;2023-03-26T00:28:35;99345.00;;;8.46;100.00
31761;BME280;18335;51.486;7.562;2023-03-26T00:31:06;99338.38;;;8.56;100.00
31761;BME280;18335;51.486;7.562;2023-03-26T00:33:34;99331.41;;;8.46;100.00
31761;BME280;18335;51.486;7.562;2023-03-26T00:36:06;99332.72;;;8.58;100.00
31761;BME280;18335;51.486;7.562;2023-03-26T00:38:34;99330.91;;;8.50;100.00
31761;BME280;18335;51.486;7.562;2023-03-26T00:41:04;99331.41;;;8.46;100.00
31761;BME280;18335;51.486;7.562;2023-03-26T00:43:33;99319.84;;;8.60;100.00
31761;BME280;18335;51.486;7.562;2023-03-26T00:46:01;99325.47;;;8.50;100.00
31761;BME280;18335;51.486;7.562;2023-03-26T00:48:27;99320.00;;;8.58;100.00
31761;BME280;18335;51.486;7.562;2023-03-26T00:50:55;99318.59;;;8.70;100.00
31761;BME280;18335;51.486;7.562;2023-03-26T00:53:23;99318.94;;;8.67;100.00
31761;BME280;18335;51.486;7.562;2023-03-26T00:55:50;99317.13;;;8.60;100.00
31761;BME280;18335;51.486;7.562;2023-03-26T00:58:17;99316.06;;;8.69;100.00
31761;BME280;18335;51.486;7.562;2023-03-26T01:00:49;99313.00;;;8.72;100.00
31761;BME280;18335;51.486;7.562;2023-03-26T01:03:18;99306.84;;;8.70;100.00
31761;BME280;18335;51.486;7.562;2023-03-26T01:05:47;99301.06;;;8.73;100.00
31761;BME280;18335;51.486;7.562;2023-03-26T01:08:27;99301.63;;;8.60;100.00
31761;BME280;18335;51.486;7.562;2023-03-26T01:10:56;99288.00;;;8.68;100.00
31761;BME280;18335;51.486;7.562;2023-03-26T01:13:32;99294.13;;;8.70;100.00
31761;BME280;18335;51.486;7.562;2023-03-26T01:15:59;99293.81;;;8.65;100.00
31761;BME280;18335;51.486;7.562;2023-03-26T01:18:31;99295.31;;;8.68;100.00
31761;BME280;18335;51.486;7.562;2023-03-26T01:21:06;99292.75;;;8.66;100.00
31761;BME280;18335;51.486;7.562;2023-03-26T01:23:40;99285.81;;;8.64;100.00
31761;BME280;18335;51.486;7.562;2023-03-26T01:29:02;99284.78;;;8.65;100.00
31761;BME280;18335;51.486;7.562;2023-03-26T01:31:32;99274.72;;;8.73;100.00
31761;BME280;18335;51.486;7.562;2023-03-26T01:34:08;99280.41;;;8.56;100.00
31761;BME280;18335;51.486;7.562;2023-03-26T01:36:42;99285.50;;;8.59;100.00
31761;BME280;18335;51.486;7.562;2023-03-26T01:39:15;99270.84;;;8.68;100.00
31761;BME280;18335;51.486;7.562;2023-03-26T01:41:49;99274.31;;;8.54;100.00
31761;BME280;18335;51.486;7.562;2023-03-26T01:44:22;99265.06;;;8.71;100.00
31761;BME280;18335;51.486;7.562;2023-03-26T01:46:53;99276.13;;;8.61;100.00
31761;BME280;18335;51.486;7.562;2023-03-26T01:49:20;99260.13;;;8.66;100.00
31761;BME280;18335;51.486;7.562;2023-03-26T01:51:47;99266.41;;;8.67;100.00
31761;BME280;18335;51.486;7.562;2023-03-26T01:54:15;99262.13;;;8.72;100.00
31761;BME280;18335;51.486;7.562;2023-03-26T01:56:55;99260.13;;;8.74;100.00
31761;BME280;18335;51.486;7.562;2023-03-26T01:59:35;99256.31;;;8.83;100.00
31761;BME280;18335;51.486;7.562;2023-03-26T02:02:10;99252.63;;;8.76;100.00
31761;BME280;18335;51.486;7.562;2023-03-26T02:04:42;99251.75;;;8.76;100.00
31761;BME280;18335;51.486;7.562;2023-03-26T02:07:18;99252.63;;;8.76;100.00
31761;BME280;18335;51.486;7.562;2023-03-26T02:09:48;99244.28;;;8.78;100.00
31761;BME280;18335;51.486;7.562;2023-03-26T02:12:19;99242.72;;;8.83;100.00
31761;BME280;18335;51.486;7.562;2023-03-26T02:14:47;99232.91;;;8.74;100.00
31761;BME280;18335;51.486;7.562;2023-03-26T02:17:14;99233.97;;;8.65;100.00
31761;BME280;18335;51.486;7.562;2023-03-26T02:19:41;99229.41;;;8.66;100.00
31761;BME280;18335;51.486;7.562;2023-03-26T02:22:08;99230.50;;;8.79;100.00
31761;BME280;18335;51.486;7.562;2023-03-26T02:24:36;99230.06;;;8.68;100.00
31761;BME280;18335;51.486;7.562;2023-03-26T02:27:03;99230.13;;;8.82;100.00
31761;BME280;18335;51.486;7.562;2023-03-26T02:29:34;99220.28;;;8.81;100.00
31761;BME280;18335;51.486;7.562;2023-03-26T02:32:03;99225.41;;;8.76;100.00
31761;BME280;18335;51.486;7.562;2023-03-26T02:34:30;99214.97;;;8.57;100.00
31761;BME280;18335;51.486;7.562;2023-03-26T02:36:57;99199.38;;;8.51;100.00
31761;BME280;18335;51.486;7.562;2023-03-26T02:39:25;99199.88;;;8.55;100.00
31761;BME280;18335;51.486;7.562;2023-03-26T02:41:58;99199.16;;;8.61;100.00
31761;BME280;18335;51.486;7.562;2023-03-26T02:44:26;99196.44;;;8.61;100.00
31761;BME280;18335;51.486;7.562;2023-03-26T02:47:14;99192.50;;;8.63;100.00
31761;BME280;18335;51.486;7.562;2023-03-26T02:49:50;99201.25;;;8.51;100.00
31761;BME280;18335;51.486;7.562;2023-03-26T02:52:25;99193.72;;;8.61;100.00
31761;BME280;18335;51.486;7.562;2023-03-26T02:54:54;99196.69;;;8.43;100.00
31761;BME280;18335;51.486;7.562;2023-03-26T02:57:23;99194.31;;;8.48;100.00
31761;BME280;18335;51.486;7.562;2023-03-26T03:00:14;99184.38;;;8.32;100.00
31761;BME280;18335;51.486;7.562;2023-03-26T03:02:45;99189.81;;;8.32;100.00
31761;BME280;18335;51.486;7.562;2023-03-26T03:05:36;99183.16;;;8.35;100.00
31761;BME280;18335;51.486;7.562;2023-03-26T03:08:26;99185.38;;;8.23;100.00
31761;BME280;18335;51.486;7.562;2023-03-26T03:11:15;99187.25;;;8.23;100.00
31761;BME280;18335;51.486;7.562;2023-03-26T03:13:44;99190.47;;;8.26;100.00
31761;BME280;18335;51.486;7.562;2023-03-26T03:16:15;99180.44;;;8.27;100.00
31761;BME280;18335;51.486;7.562;2023-03-26T03:18:42;99180.28;;;8.28;100.00
31761;BME280;18335;51.486;7.562;2023-03-26T03:21:09;99176.66;;;8.44;100.00
31761;BME280;18335;51.486;7.562;2023-03-26T03:23:37;99162.50;;;8.57;100.00
31761;BME280;18335;51.486;7.562;2023-03-26T03:26:13;99164.97;;;8.66;100.00
31761;BME280;18335;51.486;7.562;2023-03-26T03:28:43;99165.09;;;8.73;100.00
31761;BME280;18335;51.486;7.562;2023-03-26T03:31:13;99158.06;;;8.78;100.00
31761;BME280;18335;51.486;7.562;2023-03-26T03:33:39;99156.69;;;8.82;100.00
31761;BME280;18335;51.486;7.562;2023-03-26T03:36:08;99149.53;;;8.89;100.00
31761;BME280;18335;51.486;7.562;2023-03-26T03:38:39;99141.53;;;8.88;100.00
31761;BME280;18335;51.486;7.562;2023-03-26T03:41:08;99139.38;;;8.83;100.00
31761;BME280;18335;51.486;7.562;2023-03-26T03:43:38;99133.31;;;8.73;100.00
31761;BME280;18335;51.486;7.562;2023-03-26T03:46:12;99131.00;;;8.62;100.00
31761;BME280;18335;51.486;7.562;2023-03-26T03:48:44;99136.97;;;8.58;100.00
31761;BME280;18335;51.486;7.562;2023-03-26T03:51:16;99131.03;;;8.54;100.00
31761;BME280;18335;51.486;7.562;2023-03-26T03:53:58;99131.16;;;8.38;100.00
31761;BME280;18335;51.486;7.562;2023-03-26T03:56:44;99132.53;;;8.34;100.00
31761;BME280;18335;51.486;7.562;2023-03-26T03:59:36;99128.81;;;8.35;100.00
31761;BME280;18335;51.486;7.562;2023-03-26T04:02:06;99129.94;;;8.41;100.00
31761;BME280;18335;51.486;7.562;2023-03-26T04:04:46;99130.88;;;8.33;100.00
31761;BME280;18335;51.486;7.562;2023-03-26T04:07:16;99127.44;;;8.31;100.00
31761;BME280;18335;51.486;7.562;2023-03-26T04:10:04;99117.97;;;8.19;100.00
31761;BME280;18335;51.486;7.562;2023-03-26T04:12:51;99117.47;;;8.15;100.00
31761;BME280;18335;51.486;7.562;2023-03-26T04:15:29;99114.50;;;8.02;100.00
31761;BME280;18335;51.486;7.562;2023-03-26T04:17:55;99113.66;;;8.02;100.00
31761;BME280;18335;51.486;7.562;2023-03-26T04:20:22;99112.44;;;8.04;100.00
31761;BME280;18335;51.486;7.562;2023-03-26T04:22:50;99111.44;;;8.05;100.00
31761;BME280;18335;51.486;7.562;2023-03-26T04:25:20;99106.88;;;7.98;100.00
31761;BME280;18335;51.486;7.562;2023-03-26T04:27:52;99097.19;;;8.03;100.00
31761;BME280;18335;51.486;7.562;2023-03-26T04:30:40;99097.03;;;7.97;100.00
31761;BME280;18335;51.486;7.562;2023-03-26T04:33:26;99088.78;;;7.82;100.00
31761;BME280;18335;51.486;7.562;2023-03-26T04:35:53;99081.66;;;7.81;100.00
31761;BME280;18335;51.486;7.562;2023-03-26T04:38:21;99077.94;;;7.82;100.00
31761;BME280;18335;51.486;7.562;2023-03-26T04:40:52;99071.31;;;7.85;100.00
31761;BME280;18335;51.486;7.562;2023-03-26T04:43:36;99065.78;;;7.70;100.00
31761;BME280;18335;51.486;7.562;2023-03-26T04:46:45;99064.72;;;7.79;100.00
31761;BME280;18335;51.486;7.562;2023-03-26T04:49:18;99069.81;;;7.74;100.00
31761;BME280;18335;51.486;7.562;2023-03-26T04:51:46;99059.53;;;7.61;100.00
31761;BME280;18335;51.486;7.562;2023-03-26T04:54:48;99063.06;;;7.62;100.00
31761;BME280;18335;51.486;7.562;2023-03-26T04:57:20;99058.13;;;7.73;100.00
31761;BME280;18335;51.486;7.562;2023-03-26T04:59:58;99054.72;;;7.71;100.00
31761;BME280;18335;51.486;7.562;2023-03-26T05:02:28;99055.03;;;7.76;100.00
31761;BME280;18335;51.486;7.562;2023-03-26T05:04:57;99047.00;;;7.91;100.00
31761;BME280;18335;51.486;7.562;2023-03-26T05:07:27;99040.03;;;7.89;100.00
31761;BME280;18335;51.486;7.562;2023-03-26T05:09:56;99041.31;;;8.01;100.00
31761;BME280;18335;51.486;7.562;2023-03-26T05:12:40;99032.25;;;7.86;100.00
31761;BME280;18335;51.486;7.562;2023-03-26T05:15:12;99037.50;;;7.87;100.00
31761;BME280;18335;51.486;7.562;2023-03-26T05:17:58;99037.59;;;8.02;100.00
31761;BME280;18335;51.486;7.562;2023-03-26T05:20:34;99033.81;;;8.11;100.00
31761;BME280;18335;51.486;7.562;2023-03-26T05:23:03;99032.44;;;8.15;100.00
31761;BME280;18335;51.486;7.562;2023-03-26T05:25:33;99024.75;;;8.18;100.00
31761;BME280;18335;51.486;7.562;2023-03-26T05:28:02;99019.22;;;8.12;100.00
31761;BME280;18335;51.486;7.562;2023-03-26T05:30:44;99023.22;;;8.16;100.00
31761;BME280;18335;51.486;7.562;2023-03-26T05:33:11;99008.75;;;8.23;100.00
31761;BME280;18335;51.486;7.562;2023-03-26T05:35:44;99008.56;;;8.25;100.00
31761;BME280;18335;51.486;7.562;2023-03-26T05:38:13;99006.53;;;8.27;100.00
31761;BME280;18335;51.486;7.562;2023-03-26T05:40:40;99004.50;;;8.29;100.00
31761;BME280;18335;51.486;7.562;2023-03-26T05:43:12;98998.38;;;8.27;100.00
31761;BME280;18335;51.486;7.562;2023-03-26T05:45:53;99004.16;;;8.32;100.00
31761;BME280;18335;51.486;7.562;2023-03-26T05:48:25;99003.50;;;8.30;100.00
31761;BME280;18335;51.486;7.562;2023-03-26T05:50:54;98994.59;;;8.36;100.00
31761;BME280;18335;51.486;7.562;2023-03-26T05:53:21;98987.41;;;8.43;100.00
31761;BME280;18335;51.486;7.562;2023-03-26T05:56:24;98990.84;;;8.37;100.00
31761;BME280;18335;51.486;7.562;2023-03-26T05:59:17;98984.25;;;8.54;100.00
31761;BME280;18335;51.486;7.562;2023-03-26T06:02:02;98975.72;;;8.57;100.00
31761;BME280;18335;51.486;7.562;2023-03-26T06:04:52;98974.78;;;8.50;100.00
31761;BME280;18335;51.486;7.562;2023-03-26T06:07:45;98964.84;;;8.57;100.00
31761;BME280;18335;51.486;7.562;2023-03-26T06:10:14;98965.31;;;8.61;100.00
31761;BME280;18335;51.486;7.562;2023-03-26T06:12:42;98960.81;;;8.53;100.00
31761;BME280;18335;51.486;7.562;2023-03-26T06:15:10;98966.16;;;8.61;100.00
31761;BME280;18335;51.486;7.562;2023-03-26T06:18:00;98959.03;;;8.60;100.00
31761;BME280;18335;51.486;7.562;2023-03-26T06:20:48;98951.69;;;8.69;100.00
31761;BME280;18335;51.486;7.562;2023-03-26T06:23:25;98950.06;;;8.60;100.00
31761;BME280;18335;51.486;7.562;2023-03-26T06:26:06;98946.22;;;8.69;100.00
31761;BME280;18335;51.486;7.562;2023-03-26T06:28:59;98943.19;;;8.64;100.00
31761;BME280;18335;51.486;7.562;2023-03-26T06:31:42;98934.13;;;8.71;100.00
31761;BME280;18335;51.486;7.562;2023-03-26T06:34:16;98931.84;;;8.60;100.00
31761;BME280;18335;51.486;7.562;2023-03-26T06:36:43;98930.00;;;8.75;100.00
31761;BME280;18335;51.486;7.562;2023-03-26T06:39:10;98925.31;;;8.69;100.00
31761;BME280;18335;51.486;7.562;2023-03-26T06:41:46;98932.66;;;8.83;100.00
31761;BME280;18335;51.486;7.562;2023-03-26T06:44:32;98939.00;;;8.90;100.00
31761;BME280;18335;51.486;7.562;2023-03-26T06:47:18;98927.09;;;8.77;100.00
31761;BME280;18335;51.486;7.562;2023-03-26T06:50:23;98937.78;;;8.93;100.00
31761;BME280;18335;51.486;7.562;2023-03-26T06:53:07;98939.00;;;8.90;100.00
31761;BME280;18335;51.486;7.562;2023-03-26T06:55:45;98933.66;;;8.82;100.00
31761;BME280;18335;51.486;7.562;2023-03-26T06:58:30;98935.75;;;8.80;100.00
31761;BME280;18335;51.486;7.562;2023-03-26T07:01:16;98933.47;;;8.69;100.00
31761;BME280;18335;51.486;7.562;2023-03-26T07:04:02;98936.53;;;8.66;100.00
31761;BME280;18335;51.486;7.562;2023-03-26T07:06:47;98930.94;;;8.82;100.00
31761;BME280;18335;51.486;7.562;2023-03-26T07:09:47;98928.31;;;8.74;100.00
31761;BME280;18335;51.486;7.562;2023-03-26T07:12:32;98926.47;;;8.89;100.00
31761;BME280;18335;51.486;7.562;2023-03-26T07:15:19;98929.09;;;8.98;100.00
31761;BME280;18335;51.486;7.562;2023-03-26T07:17:45;98925.34;;;8.99;100.00
31761;BME280;18335;51.486;7.562;2023-03-26T07:20:26;98922.63;;;9.13;100.00
31761;BME280;18335;51.486;7.562;2023-03-26T07:22:53;98921.56;;;9.00;100.00
31761;BME280;18335;51.486;7.562;2023-03-26T07:25:39;98923.84;;;9.11;100.00
31761;BME280;18335;51.486;7.562;2023-03-26T07:28:31;98913.34;;;9.08;100.00
31761;BME280;18335;51.486;7.562;2023-03-26T07:31:26;98910.13;;;9.04;100.00
31761;BME280;18335;51.486;7.562;2023-03-26T07:34:33;98910.88;;;9.13;100.00
31761;BME280;18335;51.486;7.562;2023-03-26T07:37:39;98906.19;;;9.07;100.00
31761;BME280;18335;51.486;7.562;2023-03-26T07:40:44;98898.41;;;9.18;100.00
31761;BME280;18335;51.486;7.562;2023-03-26T07:43:49;98896.69;;;9.17;100.00
31761;BME280;18335;51.486;7.562;2023-03-26T07:46:43;98897.16;;;9.21;100.00
31761;BME280;18335;51.486;7.562;2023-03-26T07:49:31;98896.22;;;9.28;100.00
31761;BME280;18335;51.486;7.562;2023-03-26T07:52:09;98897.06;;;9.29;100.00
31761;BME280;18335;51.486;7.562;2023-03-26T07:54:54;98895.56;;;9.26;100.00
31761;BME280;18335;51.486;7.562;2023-03-26T07:57:47;98890.19;;;9.33;100.00
31761;BME280;18335;51.486;7.562;2023-03-26T08:00:45;98881.91;;;9.41;100.00
31761;BME280;18335;51.486;7.562;2023-03-26T08:03:38;98890.38;;;9.46;100.00
31761;BME280;18335;51.486;7.562;2023-03-26T08:06:55;98883.69;;;9.49;100.00
31761;BME280;18335;51.486;7.562;2023-03-26T08:09:56;98880.34;;;9.47;100.00
31761;BME280;18335;51.486;7.562;2023-03-26T08:12:51;98874.94;;;9.53;100.00
31761;BME280;18335;51.486;7.562;2023-03-26T08:15:24;98870.44;;;9.60;100.00
31761;BME280;18335;51.486;7.562;2023-03-26T08:18:00;98869.13;;;9.56;100.00
31761;BME280;18335;51.486;7.562;2023-03-26T08:20:38;98869.41;;;9.61;100.00
31761;BME280;18335;51.486;7.562;2023-03-26T08:23:14;98866.72;;;9.68;100.00
31761;BME280;18335;51.486;7.562;2023-03-26T08:25:51;98867.97;;;9.65;100.00
31761;BME280;18335;51.486;7.562;2023-03-26T08:28:28;98860.97;;;9.77;100.00
31761;BME280;18335;51.486;7.562;2023-03-26T08:30:59;98863.22;;;9.95;100.00
31761;BME280;18335;51.486;7.562;2023-03-26T08:33:28;98859.28;;;9.76;100.00
31761;BME280;18335;51.486;7.562;2023-03-26T08:35:57;98859.69;;;9.73;100.00
31761;BME280;18335;51.486;7.562;2023-03-26T08:38:23;98857.59;;;9.54;100.00
31761;BME280;18335;51.486;7.562;2023-03-26T08:47:10;98848.91;;;9.65;100.00
31761;BME280;18335;51.486;7.562;2023-03-26T08:55:48;98848.56;;;9.54;100.00
31761;BME280;18335;51.486;7.562;2023-03-26T08:58:37;98845.75;;;9.47;100.00
31761;BME280;18335;51.486;7.562;2023-03-26T09:01:39;98848.59;;;9.39;100.00
31761;BME280;18335;51.486;7.562;2023-03-26T09:04:38;98848.47;;;9.47;100.00
31761;BME280;18335;51.486;7.562;2023-03-26T09:07:35;98849.41;;;9.54;100.00
31761;BME280;18335;51.486;7.562;2023-03-26T09:10:38;98849.41;;;9.54;100.00
31761;BME280;18335;51.486;7.562;2023-03-26T09:13:30;98844.75;;;9.69;100.00
31761;BME280;18335;51.486;7.562;2023-03-26T09:16:26;98843.72;;;9.91;100.00
31761;BME280;18335;51.486;7.562;2023-03-26T09:19:33;98836.28;;;10.07;100.00
31761;BME280;18335;51.486;7.562;2023-03-26T09:22:40;98841.31;;;9.82;100.00
31761;BME280;18335;51.486;7.562;2023-03-26T09:25:29;98831.59;;;9.73;100.00
31761;BME280;18335;51.486;7.562;2023-03-26T09:28:29;98830.38;;;9.75;100.00
31761;BME280;18335;51.486;7.562;2023-03-26T09:31:25;98838.41;;;9.83;100.00
31761;BME280;18335;51.486;7.562;2023-03-26T09:34:17;98830.88;;;9.85;100.00
31761;BME280;18335;51.486;7.562;2023-03-26T09:36:54;98835.59;;;9.98;100.00
31761;BME280;18335;51.486;7.562;2023-03-26T09:39:35;98833.31;;;10.01;100.00
31761;BME280;18335;51.486;7.562;2023-03-26T09:42:13;98823.41;;;9.94;100.00
31761;BME280;18335;51.486;7.562;2023-03-26T09:45:18;98825.38;;;10.21;100.00
31761;BME280;18335;51.486;7.562;2023-03-26T09:51:05;98822.81;;;10.20;100.00
31761;BME280;18335;51.486;7.562;2023-03-26T09:53:50;98821.72;;;9.93;100.00
31761;BME280;18335;51.486;7.562;2023-03-26T09:56:30;98821.13;;;9.97;100.00
31761;BME280;18335;51.486;7.562;2023-03-26T10:02:11;98817.44;;;10.26;100.00
31761;BME280;18335;51.486;7.562;2023-03-26T10:04:56;98814.50;;;10.28;100.00
31761;BME280;18335;51.486;7.562;2023-03-26T10:07:45;98820.41;;;9.89;100.00
31761;BME280;18335;51.486;7.562;2023-03-26T10:10:23;98814.31;;;10.08;100.00
31761;BME280;18335;51.486;7.562;2023-03-26T10:12:56;98817.63;;;10.03;100.00
31761;BME280;18335;51.486;7.562;2023-03-26T10:15:31;98821.41;;;10.02;100.00
31761;BME280;18335;51.486;7.562;2023-03-26T10:18:08;98812.84;;;9.84;100.00
31761;BME280;18335;51.486;7.562;2023-03-26T10:20:50;98810.59;;;9.67;100.00
31761;BME280;18335;51.486;7.562;2023-03-26T10:23:38;98808.09;;;9.93;100.00
31761;BME280;18335;51.486;7.562;2023-03-26T10:26:26;98800.44;;;10.03;100.00
31761;BME280;18335;51.486;7.562;2023-03-26T10:29:10;98812.56;;;10.00;100.00
31761;BME280;18335;51.486;7.562;2023-03-26T10:31:45;98809.19;;;9.98;100.00
31761;BME280;18335;51.486;7.562;2023-03-26T10:34:24;98806.75;;;9.61;100.00
31761;BME280;18335;51.486;7.562;2023-03-26T10:37:02;98804.22;;;9.81;100.00
31761;BME280;18335;51.486;7.562;2023-03-26T10:39:58;98812.53;;;9.94;100.00
31761;BME280;18335;51.486;7.562;2023-03-26T10:42:41;98799.31;;;10.19;100.00
31761;BME280;18335;51.486;7.562;2023-03-26T10:45:35;98806.56;;;10.33;100.00
31761;BME280;18335;51.486;7.562;2023-03-26T10:48:26;98796.25;;;10.07;100.00
31761;BME280;18335;51.486;7.562;2023-03-26T10:53:52;98798.41;;;10.12;100.00
31761;BME280;18335;51.486;7.562;2023-03-26T10:56:25;98795.13;;;9.95;100.00
31761;BME280;18335;51.486;7.562;2023-03-26T10:58:55;98794.59;;;10.06;100.00
31761;BME280;18335;51.486;7.562;2023-03-26T11:01:34;98796.34;;;9.92;100.00
31761;BME280;18335;51.486;7.562;2023-03-26T11:04:18;98792.66;;;10.00;100.00
31761;BME280;18335;51.486;7.562;2023-03-26T11:06:53;98785.97;;;10.02;100.00
31761;BME280;18335;51.486;7.562;2023-03-26T11:09:32;98795.66;;;9.84;100.00
31761;BME280;18335;51.486;7.562;2023-03-26T11:12:12;98793.78;;;9.84;100.00
31761;BME280;18335;51.486;7.562;2023-03-26T11:14:54;98781.47;;;9.88;100.00
31761;BME280;18335;51.486;7.562;2023-03-26T11:17:33;98784.44;;;9.72;100.00
31761;BME280;18335;51.486;7.562;2023-03-26T11:20:07;98780.69;;;9.94;100.00
31761;BME280;18335;51.486;7.562;2023-03-26T11:22:46;98783.53;;;9.65;100.00
31761;BME280;18335;51.486;7.562;2023-03-26T11:25:33;98783.59;;;9.93;100.00
31761;BME280;18335;51.486;7.562;2023-03-26T11:28:14;98779.84;;;10.00;100.00
31761;BME280;18335;51.486;7.562;2023-03-26T11:30:51;98780.72;;;9.80;100.00
31761;BME280;18335;51.486;7.562;2023-03-26T11:33:25;98780.13;;;10.06;100.00
31761;BME280;18335;51.486;7.562;2023-03-26T11:36:01;98774.16;;;10.17;100.00
31761;BME280;18335;51.486;7.562;2023-03-26T11:38:33;98780.41;;;9.68;100.00
31761;BME280;18335;51.486;7.562;2023-03-26T11:41:11;98776.09;;;9.53;100.00
31761;BME280;18335;51.486;7.562;2023-03-26T11:43:58;98771.47;;;9.53;100.00
31761;BME280;18335;51.486;7.562;2023-03-26T11:46:31;98768.03;;;9.87;100.00
31761;BME280;18335;51.486;7.562;2023-03-26T11:49:05;98777.19;;;9.79;100.00
31761;BME280;18335;51.486;7.562;2023-03-26T11:51:38;98768.56;;;10.03;100.00
31761;BME280;18335;51.486;7.562;2023-03-26T11:54:06;98771.22;;;9.69;100.00
31761;BME280;18335;51.486;7.562;2023-03-26T11:56:40;98769.03;;;9.79;100.00
31761;BME280;18335;51.486;7.562;2023-03-26T11:59:11;98769.53;;;9.68;100.00
31761;BME280;18335;51.486;7.562;2023-03-26T12:01:48;98775.31;;;9.59;100.00
31761;BME280;18335;51.486;7.562;2023-03-26T12:04:17;98775.25;;;9.73;100.00
31761;BME280;18335;51.486;7.562;2023-03-26T12:06:54;98776.13;;;9.80;100.00
31761;BME280;18335;51.486;7.562;2023-03-26T12:09:26;98771.69;;;10.00;100.00
31761;BME280;18335;51.486;7.562;2023-03-26T12:11:59;98765.41;;;10.21;100.00
31761;BME280;18335;51.486;7.562;2023-03-26T12:14:29;98759.56;;;10.31;100.00
31761;BME280;18335;51.486;7.562;2023-03-26T12:17:05;98754.50;;;10.28;100.00
31761;BME280;18335;51.486;7.562;2023-03-26T12:19:38;98753.84;;;10.53;100.00
31761;BME280;18335;51.486;7.562;2023-03-26T12:22:28;98750.22;;;10.46;100.00
31761;BME280;18335;51.486;7.562;2023-03-26T12:25:15;98743.22;;;10.31;100.00
31761;BME280;18335;51.486;7.562;2023-03-26T12:27:43;98749.34;;;10.39;100.00
31761;BME280;18335;51.486;7.562;2023-03-26T12:30:20;98748.22;;;10.62;100.00
31761;BME280;18335;51.486;7.562;2023-03-26T12:32:50;98747.94;;;10.50;100.00
31761;BME280;18335;51.486;7.562;2023-03-26T12:35:21;98751.56;;;10.23;100.00
31761;BME280;18335;51.486;7.562;2023-03-26T12:37:52;98749.00;;;9.93;100.00
31761;BME280;18335;51.486;7.562;2023-03-26T12:40:28;98753.44;;;10.57;100.00
31761;BME280;18335;51.486;7.562;2023-03-26T12:42:56;98752.13;;;10.87;100.00
31761;BME280;18335;51.486;7.562;2023-03-26T12:45:28;98751.75;;;10.55;100.00
31761;BME280;18335;51.486;7.562;2023-03-26T12:47:58;98741.81;;;10.82;100.00
31761;BME280;18335;51.486;7.562;2023-03-26T12:50:30;98750.50;;;10.58;100.00
31761;BME280;18335;51.486;7.562;2023-03-26T12:53:07;98746.34;;;10.62;100.00
31761;BME280;18335;51.486;7.562;2023-03-26T12:55:56;98741.50;;;10.23;100.00
31761;BME280;18335;51.486;7.562;2023-03-26T12:58:38;98742.13;;;10.25;100.00
31761;BME280;18335;51.486;7.562;2023-03-26T13:01:21;98743.22;;;10.31;100.00
31761;BME280;18335;51.486;7.562;2023-03-26T13:04:06;98741.53;;;10.30;100.00
31761;BME280;18335;51.486;7.562;2023-03-26T13:06:40;98751.16;;;10.26;100.00
31761;BME280;18335;51.486;7.562;2023-03-26T13:09:18;98734.03;;;10.38;100.00
31761;BME280;18335;51.486;7.562;2023-03-26T13:11:55;98736.75;;;10.11;100.00
31761;BME280;18335;51.486;7.562;2023-03-26T13:14:33;98742.59;;;10.08;100.00
31761;BME280;18335;51.486;7.562;2023-03-26T13:17:09;98732.25;;;10.59;100.00
31761;BME280;18335;51.486;7.562;2023-03-26T13:19:46;98742.00;;;10.33;100.00
31761;BME280;18335;51.486;7.562;2023-03-26T13:22:22;98742.84;;;10.13;100.00
31761;BME280;18335;51.486;7.562;2023-03-26T13:24:57;98741.09;;;10.26;100.00
31761;BME280;18335;51.486;7.562;2023-03-26T13:27:36;98735.31;;;10.42;100.00
31761;BME280;18335;51.486;7.562;2023-03-26T13:30:14;98733.47;;;10.49;100.00
31761;BME280;18335;51.486;7.562;2023-03-26T13:32:52;98741.22;;;10.46;100.00
31761;BME280;18335;51.486;7.562;2023-03-26T13:35:29;98728.50;;;10.60;100.00
31761;BME280;18335;51.486;7.562;2023-03-26T13:38:03;98728.28;;;10.61;100.00
31761;BME280;18335;51.486;7.562;2023-03-26T13:40:39;98727.66;;;11.13;100.00
31761;BME280;18335;51.486;7.562;2023-03-26T13:43:35;98727.25;;;11.29;100.00
31761;BME280;18335;51.486;7.562;2023-03-26T13:46:10;98727.84;;;11.05;100.00
31761;BME280;18335;51.486;7.562;2023-03-26T13:48:46;98726.19;;;11.24;100.00
31761;BME280;18335;51.486;7.562;2023-03-26T13:51:17;98741.81;;;10.82;100.00
31761;BME280;18335;51.486;7.562;2023-03-26T13:53:51;98732.94;;;10.67;100.00
31761;BME280;18335;51.486;7.562;2023-03-26T13:56:24;98735.44;;;10.62;100.00
31761;BME280;18335;51.486;7.562;2023-03-26T13:58:56;98724.34;;;10.29;100.00
31761;BME280;18335;51.486;7.562;2023-03-26T14:01:27;98732.94;;;10.05;100.00
31761;BME280;18335;51.486;7.562;2023-03-26T14:04:01;98731.94;;;10.06;100.00
31761;BME280;18335;51.486;7.562;2023-03-26T14:06:41;98740.72;;;9.80;100.00
31761;BME280;18335;51.486;7.562;2023-03-26T14:09:16;98740.31;;;9.34;100.00
31761;BME280;18335;51.486;7.562;2023-03-26T14:11:57;98746.56;;;9.35;100.00
31761;BME280;18335;51.486;7.562;2023-03-26T14:14:31;98747.50;;;9.42;100.00
31761;BME280;18335;51.486;7.562;2023-03-26T14:17:05;98741.25;;;9.69;100.00